NCAR-RAP Real-Time Weather Data

Output produced by METARs form (17 January 2018  22:26 UTC)
found at http://weather.rap.ucar.edu/surface/
 
Conditions at: KOCF observed 17 January 2018  21:51 UTC
Temperature: 11.7°C (53°F)
Dewpoint: 4.4°C (40°F) [RH = 61%]
Pressure (altimeter): 30.26 inches Hg (1024.8 mb)
[Sea-level pressure: 1025.0 mb]
Winds: from the NW (320 degrees) at 9 MPH (8 knots; 4.2 m/s)
Visibility: 10 or more miles (16+ km)
Ceiling: at least 12,000 feet AGL
Clouds: sky clear below 12,000 feet AGL
Present Weather: no significant weather observed at this time
KOCF 172151Z 32008KT 10SM CLR 12/04 A3026 RMK AO2 SLP250 T01170044

Conditions at: KOCF observed 17 January 2018  20:51 UTC
Temperature: 12.2°C (54°F)
Dewpoint: 4.4°C (40°F) [RH = 59%]
Pressure (altimeter): 30.25 inches Hg (1024.5 mb)
[Sea-level pressure: 1024.6 mb]
Winds: from the WNW (290 degrees) at 10 MPH (9 knots; 4.7 m/s)
gusting to 18 MPH (16 knots; 8.3 m/s)
Visibility: 10 or more miles (16+ km)
Ceiling: at least 12,000 feet AGL
Clouds: few clouds at 6000 feet AGL
Present Weather: no significant weather observed at this time
KOCF 172051Z COR 29009G16KT 10SM FEW060 12/04 A3025 RMK AO2 SLP246 T01220044 55003

Conditions at: KOCF observed 17 January 2018  19:51 UTC
Temperature: 11.1°C (52°F)
Dewpoint: 6.1°C (43°F) [RH = 71%]
Pressure (altimeter): 30.25 inches Hg (1024.5 mb)
[Sea-level pressure: 1024.6 mb]
Winds: from the WNW (290 degrees) at 13 MPH (11 knots; 5.7 m/s)
Visibility: 10 or more miles (16+ km)
Ceiling: 5500 feet AGL
Clouds: few clouds at 4100 feet AGL
overcast cloud deck at 5500 feet AGL
Present Weather: no significant weather observed at this time
KOCF 171951Z 29011KT 10SM FEW041 OVC055 11/06 A3025 RMK AO2 SLP246 T01110061

Conditions at: KOCF observed 17 January 2018  18:51 UTC
Temperature: 13.3°C (56°F)
Dewpoint: 6.7°C (44°F) [RH = 64%]
Pressure (altimeter): 30.24 inches Hg (1024.1 mb)
[Sea-level pressure: 1024.3 mb]
Winds: from the WNW (290 degrees) at 12 MPH (10 knots; 5.2 m/s)
gusting to 22 MPH (19 knots; 9.9 m/s)
Visibility: 10 or more miles (16+ km)
Ceiling: 6000 feet AGL
Clouds: scattered clouds at 5000 feet AGL
broken clouds at 6000 feet AGL
Present Weather: no significant weather observed at this time
KOCF 171851Z 29010G19KT 10SM SCT050 BKN060 13/07 A3024 RMK AO2 SLP243 T01330067

Conditions at: KOCF observed 17 January 2018  17:51 UTC
Temperature: 15.6°C (60°F)
Dewpoint: 7.8°C (46°F) [RH = 60%]
Pressure (altimeter): 30.26 inches Hg (1024.8 mb)
[Sea-level pressure: 1024.9 mb]
Winds: from the NNW (330 degrees) at 14 MPH (12 knots; 6.2 m/s)
gusting to 18 MPH (16 knots; 8.3 m/s)
Visibility: 10 or more miles (16+ km)
Ceiling: at least 12,000 feet AGL
Clouds: sky clear below 12,000 feet AGL
Present Weather: no significant weather observed at this time
KOCF 171751Z 33012G16KT 10SM CLR 16/08 A3026 RMK AO2 SLP249 T01560078 10167 20028 58016

Conditions at: KOCF observed 17 January 2018  16:51 UTC
Temperature: 16.1°C (61°F)
Dewpoint: 8.9°C (48°F) [RH = 62%]
Pressure (altimeter): 30.28 inches Hg (1025.5 mb)
[Sea-level pressure: 1025.6 mb]
Winds: from the W (280 degrees) at 13 MPH (11 knots; 5.7 m/s)
Visibility: 10 or more miles (16+ km)
Ceiling: at least 12,000 feet AGL
Clouds: sky clear below 12,000 feet AGL
Present Weather: no significant weather observed at this time
KOCF 171651Z 28011KT 10SM CLR 16/09 A3028 RMK AO2 SLP256 T01610089

Conditions at: KOCF observed 17 January 2018  15:51 UTC
Temperature: 13.9°C (57°F)
Dewpoint: 7.8°C (46°F) [RH = 67%]
Pressure (altimeter): 30.29 inches Hg (1025.8 mb)
[Sea-level pressure: 1026.2 mb]
Winds: from the SSW (200 degrees) at 5 MPH (4 knots; 2.1 m/s)
Visibility: 10 or more miles (16+ km)
Ceiling: at least 12,000 feet AGL
Clouds: sky clear below 12,000 feet AGL
Present Weather: no significant weather observed at this time
KOCF 171551Z 20004KT 10SM CLR 14/08 A3029 RMK AO2 SLP262 T01390078

Conditions at: KOCF observed 17 January 2018  14:51 UTC
Temperature: 12.2°C (54°F)
Dewpoint: 9.4°C (49°F) [RH = 83%]
Pressure (altimeter): 30.30 inches Hg (1026.2 mb)
[Sea-level pressure: 1026.5 mb]
Winds: from the NW (310 degrees) at 12 MPH (10 knots; 5.2 m/s)
Visibility: 10 or more miles (16+ km)
Ceiling: at least 12,000 feet AGL
Clouds: sky clear below 12,000 feet AGL
Present Weather: no significant weather observed at this time
KOCF 171451Z 31010KT 10SM CLR 12/09 A3030 RMK AO2 SLP265 T01220094 53013

Conditions at: KOCF observed 17 January 2018  13:51 UTC
Temperature: 7.2°C (45°F)
Dewpoint: 6.7°C (44°F) [RH = 97%]
Pressure (altimeter): 30.27 inches Hg (1025.1 mb)
[Sea-level pressure: 1025.5 mb]
Winds: calm
Visibility: 10 or more miles (16+ km)
Ceiling: at least 12,000 feet AGL
Clouds: sky clear below 12,000 feet AGL
Present Weather: no significant weather observed at this time
KOCF 171351Z 00000KT 10SM CLR 07/07 A3027 RMK AO2 SLP255 T00720067

Conditions at: KOCF observed 17 January 2018  12:51 UTC
Temperature: 3.3°C (38°F)
Dewpoint: 2.8°C (37°F) [RH = 97%]
Pressure (altimeter): 30.26 inches Hg (1024.8 mb)
[Sea-level pressure: 1025.2 mb]
Winds: calm
Visibility: 9 miles (14 km)
Ceiling: at least 12,000 feet AGL
Clouds: sky clear below 12,000 feet AGL
Present Weather: no significant weather observed at this time
KOCF 171251Z 00000KT 9SM CLR 03/03 A3026 RMK AO2 SLP252 T00330028

Conditions at: KOCF observed 17 January 2018  12:07 UTC
Temperature: 3.0°C (37°F)
Dewpoint: 3.0°C (37°F) [RH = 100%]
Pressure (altimeter): 30.26 inches Hg (1024.8 mb)
Winds: calm
Visibility: 0.75 miles (1.21 km)
Ceiling: at least 12,000 feet AGL
Clouds: sky clear below 12,000 feet AGL
Present Weather: BR  (mist)
KOCF 171207Z 00000KT 3/4SM BR CLR 03/03 A3026 RMK AO2

Conditions at: KOCF observed 17 January 2018  11:59 UTC
Temperature: 3.0°C (37°F)
Dewpoint: 3.0°C (37°F) [RH = 100%]
Pressure (altimeter): 30.26 inches Hg (1024.8 mb)
Winds: calm
Visibility: 1.25 miles (2.01 km)
Ceiling: at least 12,000 feet AGL
Clouds: sky clear below 12,000 feet AGL
Present Weather: BR  (mist)
KOCF 171159Z 00000KT 1 1/4SM BR CLR 03/03 A3026 RMK AO2

Conditions at: KOCF observed 17 January 2018  11:51 UTC
Temperature: 2.8°C (37°F)
Dewpoint: 2.8°C (37°F) [RH = 100%]
Pressure (altimeter): 30.27 inches Hg (1025.1 mb)
[Sea-level pressure: 1025.2 mb]
Winds: calm
Visibility: 0.75 miles (1.21 km)
Ceiling: at least 12,000 feet AGL
Clouds: sky clear below 12,000 feet AGL
Present Weather: BR  (mist)
KOCF 171151Z 00000KT 3/4SM BR CLR 03/03 A3027 RMK AO2 SLP252 T00280028 10083 20028 53002

Conditions at: KOCF observed 17 January 2018  11:40 UTC
Temperature: 3.0°C (37°F)
Dewpoint: 3.0°C (37°F) [RH = 100%]
Pressure (altimeter): 30.27 inches Hg (1025.1 mb)
Winds: calm
Visibility: 0.75 miles (1.21 km)
Ceiling: at least 12,000 feet AGL
Clouds: sky clear below 12,000 feet AGL
Present Weather: BR  (mist)
KOCF 171140Z AUTO 00000KT 3/4SM BR CLR 03/03 A3027 RMK AO2

Conditions at: KOCF observed 17 January 2018  11:34 UTC
Temperature: 3.0°C (37°F)
Dewpoint: 3.0°C (37°F) [RH = 100%]
Pressure (altimeter): 30.26 inches Hg (1024.8 mb)
Winds: calm
Visibility: 1.75 miles (2.82 km)
Ceiling: at least 12,000 feet AGL
Clouds: sky clear below 12,000 feet AGL
Present Weather: BR  (mist)
KOCF 171134Z AUTO 00000KT 1 3/4SM BR CLR 03/03 A3026 RMK AO2

Conditions at: KOCF observed 17 January 2018  11:27 UTC
Temperature: 3.0°C (37°F)
Dewpoint: 3.0°C (37°F) [RH = 100%]
Pressure (altimeter): 30.26 inches Hg (1024.8 mb)
Winds: calm
Visibility: 3 miles (5 km)
Ceiling: at least 12,000 feet AGL
Clouds: sky clear below 12,000 feet AGL
Present Weather: BR  (mist)
KOCF 171127Z AUTO 00000KT 3SM BR CLR 03/03 A3026 RMK AO2

Conditions at: KOCF observed 17 January 2018  11:10 UTC
Temperature: 3.0°C (37°F)
Dewpoint: 3.0°C (37°F) [RH = 100%]
Pressure (altimeter): 30.26 inches Hg (1024.8 mb)
Winds: calm
Visibility: 1.75 miles (2.82 km)
Ceiling: at least 12,000 feet AGL
Clouds: sky clear below 12,000 feet AGL
Present Weather: BR  (mist)
KOCF 171110Z AUTO 00000KT 1 3/4SM BR CLR 03/03 A3026 RMK AO2 VIS 1V4

Conditions at: KOCF observed 17 January 2018  11:02 UTC
Temperature: 3.0°C (37°F)
Dewpoint: 3.0°C (37°F) [RH = 100%]
Pressure (altimeter): 30.26 inches Hg (1024.8 mb)
Winds: calm
Visibility: 1.00 miles (1.61 km)
Ceiling: at least 12,000 feet AGL
Clouds: sky clear below 12,000 feet AGL
Present Weather: BR  (mist)
KOCF 171102Z AUTO 00000KT 1SM BR CLR 03/03 A3026 RMK AO2

Conditions at: KOCF observed 17 January 2018  10:51 UTC
Temperature: 3.3°C (38°F)
Dewpoint: 3.3°C (38°F) [RH = 100%]
Pressure (altimeter): 30.26 inches Hg (1024.8 mb)
[Sea-level pressure: 1025.0 mb]
Winds: calm
Visibility: 0.50 miles (0.80 km)
Ceiling: at least 12,000 feet AGL
Clouds: sky clear below 12,000 feet AGL
Present Weather: FG  (fog)
KOCF 171051Z AUTO 00000KT 1/2SM FG CLR 03/03 A3026 RMK AO2 SLP250 T00330033

Conditions at: KOCF observed 17 January 2018  10:44 UTC
Temperature: 3.0°C (37°F)
Dewpoint: 3.0°C (37°F) [RH = 100%]
Pressure (altimeter): 30.26 inches Hg (1024.8 mb)
Winds: calm
Visibility: 0.75 miles (1.21 km)
Ceiling: at least 12,000 feet AGL
Clouds: sky clear below 12,000 feet AGL
Present Weather: BR  (mist)
KOCF 171044Z AUTO 00000KT 3/4SM BR CLR 03/03 A3026 RMK AO2

Conditions at: KOCF observed 17 January 2018  10:40 UTC
Temperature: 3.0°C (37°F)
Dewpoint: 3.0°C (37°F) [RH = 100%]
Pressure (altimeter): 30.26 inches Hg (1024.8 mb)
Winds: calm
Visibility: 1.75 miles (2.82 km)
Ceiling: at least 12,000 feet AGL
Clouds: sky clear below 12,000 feet AGL
Present Weather: BR  (mist)
KOCF 171040Z AUTO 00000KT 1 3/4SM BR CLR 03/03 A3026 RMK AO2 VIS 1/2V5

Conditions at: KOCF observed 17 January 2018  10:35 UTC
Temperature: 3.0°C (37°F)
Dewpoint: 3.0°C (37°F) [RH = 100%]
Pressure (altimeter): 30.26 inches Hg (1024.8 mb)
Winds: calm
Visibility: 3 miles (5 km)
Ceiling: at least 12,000 feet AGL
Clouds: sky clear below 12,000 feet AGL
Present Weather: BR  (mist)
KOCF 171035Z AUTO 00000KT 3SM BR CLR 03/03 A3026 RMK AO2

Conditions at: KOCF observed 17 January 2018  10:32 UTC
Temperature: 3.0°C (37°F)
Dewpoint: 3.0°C (37°F) [RH = 100%]
Pressure (altimeter): 30.26 inches Hg (1024.8 mb)
Winds: calm
Visibility: 1.50 miles (2.41 km)
Ceiling: at least 12,000 feet AGL
Clouds: sky clear below 12,000 feet AGL
Present Weather: BR  (mist)
KOCF 171032Z AUTO 00000KT 1 1/2SM BR CLR 03/03 A3026 RMK AO2

Conditions at: KOCF observed 17 January 2018  10:18 UTC
Temperature: 3.0°C (37°F)
Dewpoint: 3.0°C (37°F) [RH = 100%]
Pressure (altimeter): 30.26 inches Hg (1024.8 mb)
Winds: calm
Visibility: 0.75 miles (1.21 km)
Ceiling: at least 12,000 feet AGL
Clouds: sky clear below 12,000 feet AGL
Present Weather: BR  (mist)
KOCF 171018Z AUTO 00000KT 3/4SM BR CLR 03/03 A3026 RMK AO2

Conditions at: KOCF observed 17 January 2018  10:14 UTC
Temperature: 3.0°C (37°F)
Dewpoint: 3.0°C (37°F) [RH = 100%]
Pressure (altimeter): 30.26 inches Hg (1024.8 mb)
Winds: calm
Visibility: 1.50 miles (2.41 km)
Ceiling: at least 12,000 feet AGL
Clouds: sky clear below 12,000 feet AGL
Present Weather: BR  (mist)
KOCF 171014Z AUTO 00000KT 1 1/2SM BR CLR 03/03 A3026 RMK AO2

Conditions at: KOCF observed 17 January 2018  10:08 UTC
Temperature: 3.0°C (37°F)
Dewpoint: 3.0°C (37°F) [RH = 100%]
Pressure (altimeter): 30.26 inches Hg (1024.8 mb)
Winds: calm
Visibility: 7 miles (11 km)
Ceiling: at least 12,000 feet AGL
Clouds: sky clear below 12,000 feet AGL
Present Weather: automated observation with no human augmentation;
there may or may not be significant weather present at this time
KOCF 171008Z AUTO 00000KT 7SM CLR 03/03 A3026 RMK AO2

Conditions at: KOCF observed 17 January 2018  10:01 UTC
Temperature: 4.0°C (39°F)
Dewpoint: 4.0°C (39°F) [RH = 100%]
Pressure (altimeter): 30.26 inches Hg (1024.8 mb)
Winds: calm
Visibility: 2.50 miles (4.02 km)
Ceiling: at least 12,000 feet AGL
Clouds: sky clear below 12,000 feet AGL
Present Weather: BR  (mist)
KOCF 171001Z AUTO 00000KT 2 1/2SM BR CLR 04/04 A3026 RMK AO2 VIS 1V5

Conditions at: KOCF observed 17 January 2018  09:57 UTC
Temperature: 4.0°C (39°F)
Dewpoint: 4.0°C (39°F) [RH = 100%]
Pressure (altimeter): 30.26 inches Hg (1024.8 mb)
Winds: calm
Visibility: 0.75 miles (1.21 km)
Ceiling: at least 12,000 feet AGL
Clouds: sky clear below 12,000 feet AGL
Present Weather: BR  (mist)
KOCF 170957Z AUTO 00000KT 3/4SM BR CLR 04/04 A3026 RMK AO2

Conditions at: KOCF observed 17 January 2018  09:51 UTC
Temperature: 5.0°C (41°F)
Dewpoint: 5.0°C (41°F) [RH = 100%]
Pressure (altimeter): 30.26 inches Hg (1024.8 mb)
[Sea-level pressure: 1024.9 mb]
Winds: calm
Visibility: 0.25 miles (0.40 km)
Ceiling: at least 12,000 feet AGL
Clouds: sky clear below 12,000 feet AGL
Present Weather: FG  (fog)
KOCF 170951Z AUTO 00000KT 1/4SM FG CLR 05/05 A3026 RMK AO2 SLP249 T00500050

Conditions at: KOCF observed 17 January 2018  09:43 UTC
Temperature: 5.0°C (41°F)
Dewpoint: 5.0°C (41°F) [RH = 100%]
Pressure (altimeter): 30.26 inches Hg (1024.8 mb)
Winds: calm
Visibility: 0.25 miles (0.40 km)
Ceiling: at least 12,000 feet AGL
Clouds: sky clear below 12,000 feet AGL
Present Weather: FG  (fog)
KOCF 170943Z AUTO 00000KT 1/4SM FG CLR 05/05 A3026 RMK AO2

Conditions at: KOCF observed 17 January 2018  09:20 UTC
Temperature: 4.0°C (39°F)
Dewpoint: 4.0°C (39°F) [RH = 100%]
Pressure (altimeter): 30.26 inches Hg (1024.8 mb)
Winds: from the N (360 degrees) at 3 MPH (3 knots; 1.6 m/s)
Visibility: 0.50 miles (0.80 km)
Ceiling: at least 12,000 feet AGL
Clouds: sky clear below 12,000 feet AGL
Present Weather: FG  (fog)
KOCF 170920Z AUTO 36003KT 1/2SM FG CLR 04/04 A3026 RMK AO2

Conditions at: KOCF observed 17 January 2018  09:08 UTC
Temperature: 5.0°C (41°F)
Dewpoint: 5.0°C (41°F) [RH = 100%]
Pressure (altimeter): 30.26 inches Hg (1024.8 mb)
Winds: from the N (350 degrees) at 3 MPH (3 knots; 1.6 m/s)
Visibility: 0.75 miles (1.21 km)
Ceiling: at least 12,000 feet AGL
Clouds: sky clear below 12,000 feet AGL
Present Weather: BR  (mist)
KOCF 170908Z AUTO 35003KT 3/4SM BR CLR 05/05 A3026 RMK AO2

Conditions at: KOCF observed 17 January 2018  08:54 UTC
Temperature: 6.0°C (43°F)
Dewpoint: 6.0°C (43°F) [RH = 100%]
Pressure (altimeter): 30.26 inches Hg (1024.8 mb)
Winds: calm
Visibility: 1.25 miles (2.01 km)
Ceiling: at least 12,000 feet AGL
Clouds: sky clear below 12,000 feet AGL
Present Weather: BR  (mist)
KOCF 170854Z AUTO 00000KT 1 1/4SM BR CLR 06/06 A3026 RMK AO2

Conditions at: KOCF observed 17 January 2018  08:51 UTC
Temperature: 5.6°C (42°F)
Dewpoint: 5.6°C (42°F) [RH = 100%]
Pressure (altimeter): 30.26 inches Hg (1024.8 mb)
[Sea-level pressure: 1025.0 mb]
Winds: calm
Visibility: 0.75 miles (1.21 km)
Ceiling: at least 12,000 feet AGL
Clouds: sky clear below 12,000 feet AGL
Present Weather: BR  (mist)
KOCF 170851Z AUTO 00000KT 3/4SM BR CLR 06/06 A3026 RMK AO2 SLP250 T00560056 56009

Conditions at: KOCF observed 17 January 2018  08:40 UTC
Temperature: 6.0°C (43°F)
Dewpoint: 6.0°C (43°F) [RH = 100%]
Pressure (altimeter): 30.26 inches Hg (1024.8 mb)
Winds: calm
Visibility: 0.50 miles (0.80 km)
Ceiling: at least 12,000 feet AGL
Clouds: sky clear below 12,000 feet AGL
Present Weather: FG  (fog)
KOCF 170840Z AUTO 00000KT 1/2SM FG CLR 06/06 A3026 RMK AO2

Conditions at: KOCF observed 17 January 2018  07:51 UTC
Temperature: 6.1°C (43°F)
Dewpoint: 6.1°C (43°F) [RH = 100%]
Pressure (altimeter): 30.27 inches Hg (1025.1 mb)
[Sea-level pressure: 1025.2 mb]
Winds: from the N (360 degrees) at 5 MPH (4 knots; 2.1 m/s)
Visibility: 0.25 miles (0.40 km)
Ceiling: at least 12,000 feet AGL
Clouds: sky clear below 12,000 feet AGL
Present Weather: FG  (fog)
KOCF 170751Z AUTO 36004KT 1/4SM FG CLR 06/06 A3027 RMK AO2 SLP252 T00610061

Conditions at: KOCF observed 17 January 2018  07:48 UTC
Temperature: 6.0°C (43°F)
Dewpoint: 6.0°C (43°F) [RH = 100%]
Pressure (altimeter): 30.27 inches Hg (1025.1 mb)
Winds: from the N (360 degrees) at 5 MPH (4 knots; 2.1 m/s)
Visibility: 0.75 miles (1.21 km)
Ceiling: at least 12,000 feet AGL
Clouds: sky clear below 12,000 feet AGL
Present Weather: BR  (mist)
KOCF 170748Z AUTO 36004KT 3/4SM BR CLR 06/06 A3027 RMK AO2 VIS 1/4V5

Conditions at: KOCF observed 17 January 2018  07:46 UTC
Temperature: 6.0°C (43°F)
Dewpoint: 6.0°C (43°F) [RH = 100%]
Pressure (altimeter): 30.27 inches Hg (1025.1 mb)
Winds: from the N (360 degrees) at 5 MPH (4 knots; 2.1 m/s)
Visibility: 1.50 miles (2.41 km)
Ceiling: at least 12,000 feet AGL
Clouds: sky clear below 12,000 feet AGL
Present Weather: BR  (mist)
KOCF 170746Z AUTO 36004KT 1 1/2SM BR CLR 06/06 A3027 RMK AO2 VIS 1/2V5

Conditions at: KOCF observed 17 January 2018  07:19 UTC
Temperature: 7.0°C (45°F)
Dewpoint: 6.0°C (43°F) [RH = 93%]
Pressure (altimeter): 30.27 inches Hg (1025.1 mb)
Winds: calm
Visibility: 3 miles (5 km)
Ceiling: at least 12,000 feet AGL
Clouds: sky clear below 12,000 feet AGL
Present Weather: BR  (mist)
KOCF 170719Z AUTO 00000KT 3SM BR CLR 07/06 A3027 RMK AO2

Conditions at: KOCF observed 17 January 2018  07:16 UTC
Temperature: 7.0°C (45°F)
Dewpoint: 7.0°C (45°F) [RH = 100%]
Pressure (altimeter): 30.27 inches Hg (1025.1 mb)
Winds: calm
Visibility: 1.50 miles (2.41 km)
Ceiling: at least 12,000 feet AGL
Clouds: sky clear below 12,000 feet AGL
Present Weather: BR  (mist)
KOCF 170716Z AUTO 00000KT 1 1/2SM BR CLR 07/07 A3027 RMK AO2 VIS 1/4V5

Conditions at: KOCF observed 17 January 2018  06:51 UTC
Temperature: 6.1°C (43°F)
Dewpoint: 5.6°C (42°F) [RH = 97%]
Pressure (altimeter): 30.28 inches Hg (1025.5 mb)
[Sea-level pressure: 1025.6 mb]
Winds: from the N (360 degrees) at 5 MPH (4 knots; 2.1 m/s)
Visibility: 1.00 miles (1.61 km)
Ceiling: at least 12,000 feet AGL
Clouds: sky clear below 12,000 feet AGL
Present Weather: BR  (mist)
KOCF 170651Z AUTO 36004KT 1SM BR CLR 06/06 A3028 RMK AO2 VIS 1/2V5 SLP256 T00610056

Conditions at: KOCF observed 17 January 2018  06:48 UTC
Temperature: 6.0°C (43°F)
Dewpoint: 6.0°C (43°F) [RH = 100%]
Pressure (altimeter): 30.28 inches Hg (1025.5 mb)
Winds: from the NNW (340 degrees) at 6 MPH (5 knots; 2.6 m/s)
Visibility: 1.50 miles (2.41 km)
Ceiling: at least 12,000 feet AGL
Clouds: sky clear below 12,000 feet AGL
Present Weather: BR  (mist)
KOCF 170648Z AUTO 34005KT 1 1/2SM BR CLR 06/06 A3028 RMK AO2 VIS 1/2V5

Conditions at: KOCF observed 17 January 2018  05:51 UTC
Temperature: 7.8°C (46°F)
Dewpoint: 7.8°C (46°F) [RH = 100%]
Pressure (altimeter): 30.29 inches Hg (1025.8 mb)
[Sea-level pressure: 1025.9 mb]
Winds: calm
Visibility: 8 miles (13 km)
Ceiling: at least 12,000 feet AGL
Clouds: sky clear below 12,000 feet AGL
Present Weather: automated observation with no human augmentation;
there may or may not be significant weather present at this time
KOCF 170551Z AUTO 00000KT 8SM CLR 08/08 A3029 RMK AO2 SLP259 T00780078 10139 20078 58013

Conditions at: KOCF observed 17 January 2018  04:51 UTC
Temperature: 8.3°C (47°F)
Dewpoint: 7.8°C (46°F) [RH = 97%]
Pressure (altimeter): 30.31 inches Hg (1026.5 mb)
[Sea-level pressure: 1026.8 mb]
Winds: calm
Visibility: 9 miles (14 km)
Ceiling: at least 12,000 feet AGL
Clouds: sky clear below 12,000 feet AGL
Present Weather: automated observation with no human augmentation;
there may or may not be significant weather present at this time
KOCF 170451Z AUTO 00000KT 9SM CLR 08/08 A3031 RMK AO2 SLP268 T00830078 402110022

Conditions at: KOCF observed 17 January 2018  03:51 UTC
Temperature: 8.3°C (47°F)
Dewpoint: 7.2°C (45°F) [RH = 93%]
Pressure (altimeter): 30.33 inches Hg (1027.2 mb)
[Sea-level pressure: 1027.3 mb]
Winds: from the N (10 degrees) at 3 MPH (3 knots; 1.6 m/s)
Visibility: 10 or more miles (16+ km)
Ceiling: at least 12,000 feet AGL
Clouds: sky clear below 12,000 feet AGL
Present Weather: automated observation with no human augmentation;
there may or may not be significant weather present at this time
KOCF 170351Z AUTO 01003KT 10SM CLR 08/07 A3033 RMK AO2 SLP273 T00830072

Conditions at: KOCF observed 17 January 2018  02:51 UTC
Temperature: 10.0°C (50°F)
Dewpoint: 8.9°C (48°F) [RH = 93%]
Pressure (altimeter): 30.32 inches Hg (1026.8 mb)
[Sea-level pressure: 1027.2 mb]
Winds: from the NNE (30 degrees) at 3 MPH (3 knots; 1.6 m/s)
Visibility: 10 or more miles (16+ km)
Ceiling: at least 12,000 feet AGL
Clouds: sky clear below 12,000 feet AGL
Present Weather: automated observation with no human augmentation;
there may or may not be significant weather present at this time
KOCF 170251Z AUTO 03003KT 10SM CLR 10/09 A3032 RMK AO2 SLP272 T01000089 51011

Conditions at: KOCF observed 17 January 2018  01:51 UTC
Temperature: 11.7°C (53°F)
Dewpoint: 9.4°C (49°F) [RH = 86%]
Pressure (altimeter): 30.32 inches Hg (1026.8 mb)
[Sea-level pressure: 1026.9 mb]
Winds: calm
Visibility: 10 or more miles (16+ km)
Ceiling: at least 12,000 feet AGL
Clouds: sky clear below 12,000 feet AGL
Present Weather: automated observation with no human augmentation;
there may or may not be significant weather present at this time
KOCF 170151Z AUTO 00000KT 10SM CLR 12/09 A3032 RMK AO2 SLP269 T01170094

Conditions at: KOCF observed 17 January 2018  00:51 UTC
Temperature: 11.7°C (53°F)
Dewpoint: 8.3°C (47°F) [RH = 80%]
Pressure (altimeter): 30.31 inches Hg (1026.5 mb)
[Sea-level pressure: 1026.6 mb]
Winds: calm
Visibility: 10 or more miles (16+ km)
Ceiling: at least 12,000 feet AGL
Clouds: sky clear below 12,000 feet AGL
Present Weather: no significant weather observed at this time
KOCF 170051Z 00000KT 10SM CLR 12/08 A3031 RMK AO2 SLP266 T01170083

Conditions at: KOCF observed 16 January 2018  23:51 UTC
Temperature: 13.9°C (57°F)
Dewpoint: 8.9°C (48°F) [RH = 72%]
Pressure (altimeter): 30.29 inches Hg (1025.8 mb)
[Sea-level pressure: 1026.1 mb]
Winds: calm
Visibility: 10 or more miles (16+ km)
Ceiling: at least 12,000 feet AGL
Clouds: sky clear below 12,000 feet AGL
Present Weather: no significant weather observed at this time
KOCF 162351Z 00000KT 10SM CLR 14/09 A3029 RMK AO2 SLP261 T01390089 10211 20139 58005

Conditions at: KOCF observed 16 January 2018  22:51 UTC
Temperature: 17.2°C (63°F)
Dewpoint: 8.3°C (47°F) [RH = 56%]
Pressure (altimeter): 30.31 inches Hg (1026.5 mb)
[Sea-level pressure: 1026.6 mb]
Winds: from the ENE (60 degrees) at 3 MPH (3 knots; 1.6 m/s)
Visibility: 10 or more miles (16+ km)
Ceiling: at least 12,000 feet AGL
Clouds: sky clear below 12,000 feet AGL
Present Weather: no significant weather observed at this time
KOCF 162251Z 06003KT 10SM CLR 17/08 A3031 RMK AO2 SLP266 T01720083

Conditions at: KOCF observed 16 January 2018  21:51 UTC
Temperature: 19.4°C (67°F)
Dewpoint: 6.1°C (43°F) [RH = 42%]
Pressure (altimeter): 30.30 inches Hg (1026.2 mb)
[Sea-level pressure: 1026.4 mb]
Winds: from the NE (40 degrees) at 3 MPH (3 knots; 1.6 m/s)
Visibility: 10 or more miles (16+ km)
Ceiling: at least 12,000 feet AGL
Clouds: few clouds at 6500 feet AGL
Present Weather: no significant weather observed at this time
KOCF 162151Z 04003KT 10SM FEW065 19/06 A3030 RMK AO2 SLP264 T01940061

Conditions at: KOCF observed 16 January 2018  20:51 UTC
Temperature: 20.0°C (68°F)
Dewpoint: 6.1°C (43°F) [RH = 40%]
Pressure (altimeter): 30.31 inches Hg (1026.5 mb)
[Sea-level pressure: 1026.6 mb]
Winds: calm
Visibility: 10 or more miles (16+ km)
Ceiling: at least 12,000 feet AGL
Clouds: scattered clouds at 6000 feet AGL
Present Weather: no significant weather observed at this time
KOCF 162051Z 00000KT 10SM SCT060 20/06 A3031 RMK AO2 SLP266 T02000061 56019

Conditions at: KOCF observed 16 January 2018  19:51 UTC
Temperature: 19.4°C (67°F)
Dewpoint: 7.8°C (46°F) [RH = 47%]
Pressure (altimeter): 30.31 inches Hg (1026.5 mb)
[Sea-level pressure: 1026.8 mb]
Winds: from the NNE (20 degrees) at 5 MPH (4 knots; 2.1 m/s)
Visibility: 10 or more miles (16+ km)
Ceiling: at least 12,000 feet AGL
Clouds: few clouds at 5500 feet AGL
Present Weather: no significant weather observed at this time
KOCF 161951Z 02004KT 10SM FEW055 19/08 A3031 RMK AO2 SLP268 T01940078

Conditions at: KOCF observed 16 January 2018  18:51 UTC
Temperature: 20.0°C (68°F)
Dewpoint: 6.1°C (43°F) [RH = 40%]
Pressure (altimeter): 30.33 inches Hg (1027.2 mb)
[Sea-level pressure: 1027.3 mb]
Winds: from the N (360 degrees) at 5 MPH (4 knots; 2.1 m/s)
Visibility: 10 or more miles (16+ km)
Ceiling: at least 12,000 feet AGL
Clouds: scattered clouds at 4500 feet AGL
Present Weather: no significant weather observed at this time
KOCF 161851Z 36004KT 10SM SCT045 20/06 A3033 RMK AO2 SLP273 T02000061

Conditions at: KOCF observed 16 January 2018  17:51 UTC
Temperature: 18.3°C (65°F)
Dewpoint: 9.4°C (49°F) [RH = 56%]
Pressure (altimeter): 30.36 inches Hg (1028.2 mb)
[Sea-level pressure: 1028.5 mb]
Winds: variable direction winds at 6 MPH (5 knots; 2.6 m/s)
Visibility: 10 or more miles (16+ km)
Ceiling: at least 12,000 feet AGL
Clouds: sky clear below 12,000 feet AGL
Present Weather: no significant weather observed at this time
KOCF 161751Z VRB05KT 10SM CLR 18/09 A3036 RMK AO2 SLP285 T01830094 10183 20039 58021

Conditions at: KOCF observed 16 January 2018  16:51 UTC
Temperature: 17.2°C (63°F)
Dewpoint: 9.4°C (49°F) [RH = 60%]
Pressure (altimeter): 30.40 inches Hg (1029.5 mb)
[Sea-level pressure: 1029.8 mb]
Winds: from the NE (40 degrees) at 6 MPH (5 knots; 2.6 m/s)
Visibility: 10 or more miles (16+ km)
Ceiling: at least 12,000 feet AGL
Clouds: sky clear below 12,000 feet AGL
Present Weather: no significant weather observed at this time
KOCF 161651Z 04005KT 10SM CLR 17/09 A3040 RMK AO2 SLP298 T01720094

Conditions at: KOCF observed 16 January 2018  15:51 UTC
Temperature: 15.0°C (59°F)
Dewpoint: 8.3°C (47°F) [RH = 64%]
Pressure (altimeter): 30.41 inches Hg (1029.9 mb)
[Sea-level pressure: 1030.2 mb]
Winds: variable direction winds at 7 MPH (6 knots; 3.1 m/s)
Visibility: 10 or more miles (16+ km)
Ceiling: at least 12,000 feet AGL
Clouds: sky clear below 12,000 feet AGL
Present Weather: no significant weather observed at this time
KOCF 161551Z VRB06KT 10SM CLR 15/08 A3041 RMK AO2 SLP302 T01500083

Conditions at: KOCF observed 16 January 2018  14:51 UTC
Temperature: 12.2°C (54°F)
Dewpoint: 7.2°C (45°F) [RH = 71%]
Pressure (altimeter): 30.42 inches Hg (1030.2 mb)
[Sea-level pressure: 1030.6 mb]
Winds: from the ENE (60 degrees) at 9 MPH (8 knots; 4.2 m/s)
Visibility: 10 or more miles (16+ km)
Ceiling: at least 12,000 feet AGL
Clouds: sky clear below 12,000 feet AGL
Present Weather: no significant weather observed at this time
KOCF 161451Z 06008KT 10SM CLR 12/07 A3042 RMK AO2 SLP306 T01220072 53010

Conditions at: KOCF observed 16 January 2018  13:51 UTC
Temperature: 8.9°C (48°F)
Dewpoint: 5.6°C (42°F) [RH = 80%]
Pressure (altimeter): 30.41 inches Hg (1029.9 mb)
[Sea-level pressure: 1030.2 mb]
Winds: from the NNE (30 degrees) at 7 MPH (6 knots; 3.1 m/s)
Visibility: 10 or more miles (16+ km)
Ceiling: at least 12,000 feet AGL
Clouds: sky clear below 12,000 feet AGL
Present Weather: no significant weather observed at this time
KOCF 161351Z 03006KT 10SM CLR 09/06 A3041 RMK AO2 SLP302 T00890056

Conditions at: KOCF observed 16 January 2018  12:51 UTC
Temperature: 6.0°C (43°F)
Dewpoint: 4.0°C (39°F) [RH = 87%]
Pressure (altimeter): 30.40 inches Hg (1029.5 mb)
Winds: from the NNE (30 degrees) at 3 MPH (3 knots; 1.6 m/s)
Visibility: 10 or more miles (16+ km)
Ceiling: at least 12,000 feet AGL
Clouds: sky clear below 12,000 feet AGL
Present Weather: no significant weather observed at this time
KOCF 161251Z 03003KT 10SM CLR 06/04 A3040

Conditions at: KOCF observed 16 January 2018  11:51 UTC
Temperature: 5.0°C (41°F)
Dewpoint: 3.0°C (37°F) [RH = 87%]
Pressure (altimeter): 30.40 inches Hg (1029.5 mb)
Winds: from the NNE (20 degrees) at 3 MPH (3 knots; 1.6 m/s)
Visibility: 10 or more miles (16+ km)
Ceiling: at least 12,000 feet AGL
Clouds: sky clear below 12,000 feet AGL
Present Weather: no significant weather observed at this time
KOCF 161151Z 02003KT 10SM CLR 05/03 A3040

Conditions at: KOCF observed 16 January 2018  10:51 UTC
Temperature: 5.0°C (41°F)
Dewpoint: 2.8°C (37°F) [RH = 86%]
Pressure (altimeter): 30.38 inches Hg (1028.9 mb)
[Sea-level pressure: 1029.2 mb]
Winds: from the NNE (20 degrees) at 3 MPH (3 knots; 1.6 m/s)
Visibility: 10 or more miles (16+ km)
Ceiling: at least 12,000 feet AGL
Clouds: sky clear below 12,000 feet AGL
Present Weather: automated observation with no human augmentation;
there may or may not be significant weather present at this time
KOCF 161051Z AUTO 02003KT 10SM CLR 05/03 A3038 RMK AO2 SLP292 T00500028

Conditions at: KOCF observed 16 January 2018  09:51 UTC
Temperature: 2.2°C (36°F)
Dewpoint: 0.6°C (33°F) [RH = 89%]
Pressure (altimeter): 30.38 inches Hg (1028.9 mb)
[Sea-level pressure: 1028.9 mb]
Winds: from the N (10 degrees) at 5 MPH (4 knots; 2.1 m/s)
Visibility: 10 or more miles (16+ km)
Ceiling: at least 12,000 feet AGL
Clouds: sky clear below 12,000 feet AGL
Present Weather: automated observation with no human augmentation;
there may or may not be significant weather present at this time
KOCF 160951Z AUTO 01004KT 10SM CLR 02/01 A3038 RMK AO2 SLP289 T00220006 FZRANO

Conditions at: KOCF observed 16 January 2018  08:51 UTC
Temperature: 3.3°C (38°F)
Dewpoint: 1.1°C (34°F) [RH = 85%]
Pressure (altimeter): 30.38 inches Hg (1028.9 mb)
[Sea-level pressure: 1029.0 mb]
Winds: from the N (360 degrees) at 5 MPH (4 knots; 2.1 m/s)
Visibility: 10 or more miles (16+ km)
Ceiling: at least 12,000 feet AGL
Clouds: sky clear below 12,000 feet AGL
Present Weather: automated observation with no human augmentation;
there may or may not be significant weather present at this time
KOCF 160851Z AUTO 36004KT 10SM CLR 03/01 A3038 RMK AO2 SLP290 T00330011 55004

Conditions at: KOCF observed 16 January 2018  07:51 UTC
Temperature: 3.3°C (38°F)
Dewpoint: 1.1°C (34°F) [RH = 85%]
Pressure (altimeter): 30.37 inches Hg (1028.5 mb)
[Sea-level pressure: 1028.9 mb]
Winds: from the NNE (20 degrees) at 3 MPH (3 knots; 1.6 m/s)
Visibility: 10 or more miles (16+ km)
Ceiling: at least 12,000 feet AGL
Clouds: sky clear below 12,000 feet AGL
Present Weather: automated observation with no human augmentation;
there may or may not be significant weather present at this time
KOCF 160751Z AUTO 02003KT 10SM CLR 03/01 A3037 RMK AO2 SLP289 T00330011

Conditions at: KOCF observed 16 January 2018  06:51 UTC
Temperature: 3.9°C (39°F)
Dewpoint: 1.1°C (34°F) [RH = 82%]
Pressure (altimeter): 30.38 inches Hg (1028.9 mb)
[Sea-level pressure: 1029.1 mb]
Winds: from the NNE (20 degrees) at 5 MPH (4 knots; 2.1 m/s)
Visibility: 10 or more miles (16+ km)
Ceiling: at least 12,000 feet AGL
Clouds: sky clear below 12,000 feet AGL
Present Weather: automated observation with no human augmentation;
there may or may not be significant weather present at this time
KOCF 160651Z AUTO 02004KT 10SM CLR 04/01 A3038 RMK AO2 SLP291 T00390011

Conditions at: KOCF observed 16 January 2018  05:51 UTC
Temperature: 3.9°C (39°F)
Dewpoint: 0.6°C (33°F) [RH = 79%]
Pressure (altimeter): 30.39 inches Hg (1029.2 mb)
[Sea-level pressure: 1029.4 mb]
Winds: variable direction winds at 3 MPH (3 knots; 1.6 m/s)
Visibility: 10 or more miles (16+ km)
Ceiling: at least 12,000 feet AGL
Clouds: sky clear below 12,000 feet AGL
Present Weather: automated observation with no human augmentation;
there may or may not be significant weather present at this time
KOCF 160551Z AUTO VRB03KT 10SM CLR 04/01 A3039 RMK AO2 SLP294 T00390006 10106 20039 58009

Conditions at: KOCF observed 16 January 2018  04:51 UTC
Temperature: 5.0°C (41°F)
Dewpoint: 0.6°C (33°F) [RH = 73%]
Pressure (altimeter): 30.40 inches Hg (1029.5 mb)
[Sea-level pressure: 1029.8 mb]
Winds: from the NNE (20 degrees) at 3 MPH (3 knots; 1.6 m/s)
Visibility: 10 or more miles (16+ km)
Ceiling: at least 12,000 feet AGL
Clouds: sky clear below 12,000 feet AGL
Present Weather: automated observation with no human augmentation;
there may or may not be significant weather present at this time
KOCF 160451Z AUTO 02003KT 10SM CLR 05/01 A3040 RMK AO2 SLP298 T00500006 401670028

Conditions at: KOCF observed 16 January 2018  03:51 UTC
Temperature: 5.0°C (41°F)
Dewpoint: 1.1°C (34°F) [RH = 76%]
Pressure (altimeter): 30.42 inches Hg (1030.2 mb)
[Sea-level pressure: 1030.4 mb]
Winds: from the NNE (30 degrees) at 3 MPH (3 knots; 1.6 m/s)
Visibility: 10 or more miles (16+ km)
Ceiling: at least 12,000 feet AGL
Clouds: sky clear below 12,000 feet AGL
Present Weather: automated observation with no human augmentation;
there may or may not be significant weather present at this time
KOCF 160351Z AUTO 03003KT 10SM CLR 05/01 A3042 RMK AO2 SLP304 T00500011

Conditions at: KOCF observed 16 January 2018  02:51 UTC
Temperature: 5.6°C (42°F)
Dewpoint: 1.1°C (34°F) [RH = 73%]
Pressure (altimeter): 30.42 inches Hg (1030.2 mb)
[Sea-level pressure: 1030.3 mb]
Winds: variable direction winds at 3 MPH (3 knots; 1.6 m/s)
Visibility: 10 or more miles (16+ km)
Ceiling: at least 12,000 feet AGL
Clouds: sky clear below 12,000 feet AGL
Present Weather: automated observation with no human augmentation;
there may or may not be significant weather present at this time
KOCF 160251Z AUTO VRB03KT 10SM CLR 06/01 A3042 RMK AO2 SLP303 T00560011 51012

Conditions at: KOCF observed 16 January 2018  01:51 UTC
Temperature: 7.2°C (45°F)
Dewpoint: 1.7°C (35°F) [RH = 68%]
Pressure (altimeter): 30.41 inches Hg (1029.9 mb)
[Sea-level pressure: 1030.1 mb]
Winds: from the ENE (60 degrees) at 6 MPH (5 knots; 2.6 m/s)
Visibility: 10 or more miles (16+ km)
Ceiling: at least 12,000 feet AGL
Clouds: sky clear below 12,000 feet AGL
Present Weather: automated observation with no human augmentation;
there may or may not be significant weather present at this time
KOCF 160151Z AUTO 06005KT 10SM CLR 07/02 A3041 RMK AO2 SLP301 T00720017

Conditions at: KOCF observed 16 January 2018  00:51 UTC
Temperature: 8.9°C (48°F)
Dewpoint: 2.2°C (36°F) [RH = 63%]
Pressure (altimeter): 30.40 inches Hg (1029.5 mb)
[Sea-level pressure: 1029.7 mb]
Winds: from the NE (50 degrees) at 9 MPH (8 knots; 4.2 m/s)
gusting to 17 MPH (15 knots; 7.8 m/s)
Visibility: 10 or more miles (16+ km)
Ceiling: at least 12,000 feet AGL
Clouds: sky clear below 12,000 feet AGL
Present Weather: automated observation with no human augmentation;
there may or may not be significant weather present at this time
KOCF 160051Z AUTO 05008G15KT 10SM CLR 09/02 A3040 RMK AO2 SLP297 T00890022

Conditions at: KOCF observed 15 January 2018  23:51 UTC
Temperature: 10.6°C (51°F)
Dewpoint: 2.8°C (37°F) [RH = 58%]
Pressure (altimeter): 30.38 inches Hg (1028.9 mb)
[Sea-level pressure: 1029.2 mb]
Winds: variable direction winds at 6 MPH (5 knots; 2.6 m/s)
Visibility: 10 or more miles (16+ km)
Ceiling: at least 12,000 feet AGL
Clouds: sky clear below 12,000 feet AGL
Present Weather: no significant weather observed at this time
KOCF 152351Z VRB05KT 10SM CLR 11/03 A3038 RMK AO2 SLP292 T01060028 10167 20106 53014

Conditions at: KOCF observed 15 January 2018  22:51 UTC
Temperature: 12.8°C (55°F)
Dewpoint: 3.3°C (38°F) [RH = 52%]
Pressure (altimeter): 30.36 inches Hg (1028.2 mb)
[Sea-level pressure: 1028.3 mb]
Winds: from the NE (50 degrees) at 7 MPH (6 knots; 3.1 m/s)
Visibility: 10 or more miles (16+ km)
Ceiling: at least 12,000 feet AGL
Clouds: sky clear below 12,000 feet AGL
Present Weather: no significant weather observed at this time
KOCF 152251Z 05006KT 10SM CLR 13/03 A3036 RMK AO2 SLP283 T01280033